Time;durP1;ratioP1;P1;durP2;ratioP2;P2;SDS_P1;SDS_P2;PMS_P1;PMS_P2;Temp;Humidity;BMP_temperature;BMP_pressure;BME280_temperature;BME280_humidity;BME280_pressure;Samples;Min_cycle;Max_cycle;Signal;HPM_P1;HPM_P2
2022/05/21 00:00:37;;;;;;;6.50;2.10;;;14.20;99.90;;;;;;6281080;22;20146;-89
2022/05/21 00:03:03;;;;;;;4.43;1.77;;;14.10;99.90;;;;;;6281217;22;20172;-88
2022/05/21 00:05:33;;;;;;;3.23;1.70;;;14.00;99.90;;;;;;6280728;22;20157;-89
2022/05/21 00:07:59;;;;;;;5.50;1.70;;;13.90;99.90;;;;;;6280992;22;20178;-89
2022/05/21 00:10:27;;;;;;;8.90;2.40;;;13.90;99.90;;;;;;6280585;22;20152;-89
2022/05/21 00:12:54;;;;;;;6.30;1.83;;;14.00;99.90;;;;;;6280825;22;20147;-88
2022/05/21 00:15:23;;;;;;;2.47;1.60;;;14.00;99.90;;;;;;6279814;22;20250;-89
2022/05/21 00:17:49;;;;;;;9.47;2.60;;;14.00;99.90;;;;;;6278118;22;20245;-88
2022/05/21 00:23:07;;;;;;;5.47;1.80;;;14.20;99.90;;;;;;6308098;22;20290;-89
2022/05/21 00:25:33;;;;;;;4.23;1.80;;;14.10;99.90;;;;;;6281782;22;20147;-89
2022/05/21 00:27:59;;;;;;;4.60;1.90;;;14.20;99.90;;;;;;6281390;22;20583;-89
2022/05/21 00:30:24;;;;;;;10.13;1.90;;;14.20;99.90;;;;;;6281311;22;20208;-92
2022/05/21 00:32:50;;;;;;;9.93;2.27;;;14.30;99.90;;;;;;6281018;22;20561;-89
2022/05/21 00:35:15;;;;;;;6.00;1.83;;;14.10;99.90;;;;;;6280629;22;20165;-89
2022/05/21 00:37:41;;;;;;;5.30;2.13;;;13.90;99.90;;;;;;6280364;22;20651;-89
2022/05/21 00:40:07;;;;;;;6.80;2.00;;;13.80;99.90;;;;;;6280443;22;20152;-89
2022/05/21 00:42:33;;;;;;;7.50;2.17;;;13.80;99.90;;;;;;6279988;22;20599;-89
2022/05/21 00:44:58;;;;;;;7.37;1.93;;;13.90;99.90;;;;;;6280212;22;20153;-89
2022/05/21 00:47:24;;;;;;;6.80;2.40;;;14.00;99.90;;;;;;6280663;22;20571;-88
2022/05/21 00:49:50;;;;;;;4.13;1.67;;;14.10;99.90;;;;;;6280510;22;20199;-89
2022/05/21 00:52:22;;;;;;;5.70;2.17;;;14.00;99.90;;;;;;6280598;22;20177;-89
2022/05/21 00:55:04;;;;;;;6.50;1.97;;;14.00;99.90;;;;;;6280242;22;20147;-89
2022/05/21 00:57:38;;;;;;;3.90;2.20;;;13.90;99.90;;;;;;6280362;22;20159;-89
2022/05/21 01:00:09;;;;;;;6.33;2.10;;;13.90;99.90;;;;;;6280445;22;20176;-89
2022/05/21 01:02:57;;;;;;;4.70;2.43;;;13.90;99.90;;;;;;6279697;22;20190;-89
2022/05/21 01:05:26;;;;;;;3.90;2.10;;;13.90;99.90;;;;;;6280682;22;20158;-89
2022/05/21 01:07:55;;;;;;;5.80;3.27;;;13.80;99.90;;;;;;6279883;22;20161;-88
2022/05/21 01:10:24;;;;;;;4.83;1.97;;;13.80;99.90;;;;;;6280323;22;20227;-89
2022/05/21 01:12:52;;;;;;;13.33;3.43;;;13.70;99.90;;;;;;6279798;22;20142;-89
2022/05/21 01:15:23;;;;;;;5.73;2.30;;;13.80;99.90;;;;;;6280015;22;20601;-88
2022/05/21 01:17:48;;;;;;;4.87;2.47;;;13.70;99.90;;;;;;6280139;22;20233;-89
2022/05/21 01:20:19;;;;;;;4.60;2.27;;;13.60;99.90;;;;;;6280236;22;20177;-89
2022/05/21 01:22:51;;;;;;;5.60;2.20;;;13.60;99.90;;;;;;6279986;22;20627;-89
2022/05/21 01:25:19;;;;;;;7.30;2.37;;;13.60;99.90;;;;;;6279745;22;20138;-89
2022/05/21 01:27:47;;;;;;;6.77;2.37;;;13.60;99.90;;;;;;6280126;22;20177;-89
2022/05/21 01:30:17;;;;;;;6.57;2.27;;;13.60;99.90;;;;;;6280532;22;20151;-89
2022/05/21 01:32:48;;;;;;;5.23;2.27;;;13.70;99.90;;;;;;6280527;22;20147;-88
2022/05/21 01:35:14;;;;;;;7.63;2.07;;;13.70;99.90;;;;;;6280431;22;20192;-88
2022/05/21 01:37:41;;;;;;;8.03;2.00;;;13.80;99.90;;;;;;6281543;22;20541;-89
2022/05/21 01:40:08;;;;;;;8.33;2.83;;;13.60;99.90;;;;;;6282384;22;20221;-89
2022/05/21 01:42:34;;;;;;;6.00;2.30;;;13.60;99.90;;;;;;6281495;22;20190;-89
2022/05/21 01:45:00;;;;;;;6.33;2.30;;;13.60;99.90;;;;;;6282213;22;20657;-89
2022/05/21 01:47:26;;;;;;;5.87;2.23;;;13.50;99.90;;;;;;6281718;22;20142;-89
2022/05/21 01:49:51;;;;;;;6.30;2.37;;;13.50;99.90;;;;;;6281857;22;20179;-88
2022/05/21 01:52:17;;;;;;;8.17;2.17;;;13.30;99.90;;;;;;6281799;22;20204;-89
2022/05/21 01:54:43;;;;;;;7.43;2.10;;;13.40;99.90;;;;;;6281932;22;20170;-89
2022/05/21 01:57:09;;;;;;;3.93;2.27;;;13.50;99.90;;;;;;6281697;22;20160;-89
2022/05/21 01:59:36;;;;;;;6.10;2.23;;;13.40;99.90;;;;;;6282054;22;20233;-89
2022/05/21 02:02:01;;;;;;;6.10;2.30;;;13.50;99.90;;;;;;6281800;22;20514;-89
2022/05/21 02:04:27;;;;;;;3.93;1.70;;;13.50;99.90;;;;;;6282053;22;20142;-90
2022/05/21 02:06:53;;;;;;;5.93;2.20;;;13.50;99.90;;;;;;6281495;22;20609;-89
2022/05/21 02:09:19;;;;;;;6.60;2.20;;;13.60;99.90;;;;;;6281848;22;20174;-89
2022/05/21 02:11:45;;;;;;;7.13;2.10;;;13.60;99.90;;;;;;6282151;22;20683;-89
2022/05/21 02:14:12;;;;;;;9.40;2.23;;;13.40;99.90;;;;;;6281794;22;20161;-89
2022/05/21 02:16:37;;;;;;;5.50;2.70;;;13.50;99.90;;;;;;6280317;22;20230;-89
2022/05/21 02:19:05;;;;;;;5.13;2.13;;;13.40;99.90;;;;;;6281851;22;20233;-89
2022/05/21 02:21:33;;;;;;;4.90;2.33;;;13.40;99.90;;;;;;6281401;22;20201;-89
2022/05/21 02:23:59;;;;;;;6.10;2.40;;;13.40;99.90;;;;;;6281639;22;20145;-89
2022/05/21 02:26:24;;;;;;;5.40;2.50;;;13.50;99.90;;;;;;6281428;22;20384;-89
2022/05/21 02:28:50;;;;;;;8.20;2.77;;;13.60;99.90;;;;;;6281558;22;20544;-89
2022/05/21 02:31:16;;;;;;;8.87;2.63;;;13.50;99.90;;;;;;6281325;22;20487;-89
2022/05/21 02:33:43;;;;;;;4.37;2.40;;;13.60;99.90;;;;;;6281791;22;20184;-88
2022/05/21 02:36:09;;;;;;;4.67;2.33;;;13.60;99.90;;;;;;6281433;22;20158;-89
2022/05/21 02:41:19;;;;;;;5.73;2.30;;;13.70;99.90;;;;;;6308777;22;20235;-89
2022/05/21 02:43:46;;;;;;;3.57;1.87;;;13.60;99.90;;;;;;6281528;22;20752;-89
2022/05/21 02:46:13;;;;;;;6.17;2.53;;;13.70;99.90;;;;;;6281588;22;20142;-89
2022/05/21 02:48:39;;;;;;;8.07;2.57;;;13.50;99.90;;;;;;6280883;22;20150;-89
2022/05/21 02:51:05;;;;;;;7.17;2.20;;;13.50;99.90;;;;;;6281269;22;20142;-89
2022/05/21 02:53:31;;;;;;;6.63;2.40;;;13.40;99.90;;;;;;6282096;22;20199;-89
2022/05/21 02:56:06;;;;;;;6.13;2.20;;;13.40;99.90;;;;;;6282302;22;20226;-90
2022/05/21 02:58:32;;;;;;;6.57;2.63;;;13.30;99.90;;;;;;6282329;22;20142;-89
2022/05/21 03:00:58;;;;;;;7.07;2.57;;;13.20;99.90;;;;;;6280953;22;20196;-89
2022/05/21 03:03:24;;;;;;;9.90;2.40;;;13.20;99.90;;;;;;6280937;22;20237;-87
2022/05/21 03:05:49;;;;;;;6.80;2.67;;;13.20;99.90;;;;;;6281391;22;20261;-89
2022/05/21 03:10:59;;;;;;;9.07;2.73;;;13.20;99.90;;;;;;6308576;22;20142;-89
2022/05/21 03:13:25;;;;;;;7.60;2.93;;;13.20;99.90;;;;;;6281022;22;20150;-89
2022/05/21 03:15:51;;;;;;;13.77;3.17;;;13.20;99.90;;;;;;6280797;22;20192;-90
2022/05/21 03:18:18;;;;;;;7.30;3.17;;;13.20;99.90;;;;;;6281006;22;20180;-89
2022/05/21 03:20:45;;;;;;;7.37;3.10;;;13.20;99.90;;;;;;6280875;22;20142;-89
2022/05/21 03:23:11;;;;;;;6.03;2.63;;;13.20;99.90;;;;;;6281269;22;20168;-89
2022/05/21 03:25:37;;;;;;;7.27;2.97;;;13.20;99.90;;;;;;6280889;22;20138;-89
2022/05/21 03:28:04;;;;;;;8.20;2.83;;;13.20;99.90;;;;;;6281276;22;20150;-89
2022/05/21 03:30:30;;;;;;;6.60;2.63;;;13.20;99.90;;;;;;6280618;22;20149;-89
2022/05/21 03:32:56;;;;;;;11.77;3.30;;;13.30;99.90;;;;;;6280949;22;20149;-88
2022/05/21 03:35:22;;;;;;;7.10;3.17;;;13.30;99.90;;;;;;6280794;22;20154;-89
2022/05/21 03:37:49;;;;;;;8.63;3.37;;;13.20;99.90;;;;;;6280971;22;20150;-89
2022/05/21 03:40:22;;;;;;;10.23;3.53;;;13.10;99.90;;;;;;6281233;22;20149;-89
2022/05/21 03:42:48;;;;;;;4.47;2.60;;;13.10;99.90;;;;;;6280518;22;20178;-89
2022/05/21 03:45:14;;;;;;;11.40;3.37;;;13.10;99.90;;;;;;6280668;22;20146;-89
2022/05/21 03:47:41;;;;;;;12.70;3.13;;;13.10;99.90;;;;;;6280628;22;20146;-88
2022/05/21 03:50:13;;;;;;;8.30;3.03;;;13.10;99.90;;;;;;6280322;22;20150;-90
2022/05/21 03:52:40;;;;;;;7.53;3.10;;;13.10;99.90;;;;;;6280963;22;20660;-89
2022/05/21 03:55:06;;;;;;;11.50;2.87;;;13.20;99.90;;;;;;6280980;22;20153;-90
2022/05/21 03:57:32;;;;;;;11.33;3.23;;;13.30;99.90;;;;;;6280898;22;20166;-89
2022/05/21 03:59:58;;;;;;;7.97;3.37;;;13.50;99.90;;;;;;6280746;22;20160;-89
2022/05/21 04:02:25;;;;;;;14.20;3.30;;;13.50;99.90;;;;;;6279567;22;20630;-90
2022/05/21 04:04:50;;;;;;;15.53;3.30;;;13.50;99.90;;;;;;6280341;22;20146;-89
2022/05/21 04:07:16;;;;;;;12.13;3.27;;;13.60;99.90;;;;;;6280510;22;20149;-89
2022/05/21 04:09:42;;;;;;;14.17;3.27;;;13.60;99.90;;;;;;6280711;22;20142;-88
2022/05/21 04:12:09;;;;;;;5.63;3.37;;;13.50;99.90;;;;;;6280663;22;20174;-89
2022/05/21 04:14:34;;;;;;;8.57;3.10;;;13.40;99.90;;;;;;6280644;22;20170;-89
2022/05/21 04:17:03;;;;;;;12.67;3.20;;;13.50;99.90;;;;;;6279588;22;20201;-89
2022/05/21 04:19:29;;;;;;;14.33;3.47;;;13.40;99.90;;;;;;6280541;22;20153;-89
2022/05/21 04:21:56;;;;;;;10.27;3.03;;;13.50;99.90;;;;;;6280305;22;20201;-88
2022/05/21 04:24:22;;;;;;;9.50;3.00;;;13.60;99.90;;;;;;6280660;22;20134;-89
2022/05/21 04:26:48;;;;;;;7.73;3.47;;;13.50;99.90;;;;;;6279711;22;20146;-89
2022/05/21 04:29:15;;;;;;;11.33;3.73;;;13.70;99.90;;;;;;6280273;22;20150;-89
2022/05/21 04:31:41;;;;;;;8.53;3.07;;;13.70;99.90;;;;;;6279854;22;20591;-89
2022/05/21 04:34:06;;;;;;;13.47;3.73;;;13.80;99.90;;;;;;6280495;22;20154;-89
2022/05/21 04:36:33;;;;;;;9.70;3.33;;;13.80;99.90;;;;;;6280273;22;20159;-89
2022/05/21 04:38:58;;;;;;;8.73;3.20;;;13.80;99.90;;;;;;6280477;22;20208;-89
2022/05/21 04:41:25;;;;;;;16.50;4.47;;;13.90;99.90;;;;;;6280522;22;20182;-89
2022/05/21 04:43:52;;;;;;;10.30;3.73;;;14.00;99.90;;;;;;6280411;22;20178;-89
2022/05/21 04:46:18;;;;;;;9.90;3.33;;;14.20;99.90;;;;;;6279920;22;20151;-90
2022/05/21 04:48:45;;;;;;;9.53;3.03;;;14.20;99.90;;;;;;6280083;22;20146;-89
2022/05/21 04:51:11;;;;;;;15.57;3.30;;;14.30;99.90;;;;;;6280782;22;20144;-89
2022/05/21 04:53:37;;;;;;;12.23;3.23;;;14.30;99.90;;;;;;6280161;22;20144;-89
2022/05/21 04:56:04;;;;;;;8.77;3.00;;;14.50;99.90;;;;;;6280422;22;20224;-89
2022/05/21 04:58:30;;;;;;;12.53;3.10;;;14.40;99.90;;;;;;6280280;22;20580;-89
2022/05/21 05:00:55;;;;;;;19.50;3.23;;;14.50;99.90;;;;;;6280426;22;20588;-89
2022/05/21 05:03:22;;;;;;;11.53;3.00;;;14.50;99.90;;;;;;6280138;22;20155;-89
2022/05/21 05:05:48;;;;;;;11.67;3.53;;;14.30;99.90;;;;;;6280343;22;20155;-89
2022/05/21 05:08:16;;;;;;;12.90;3.33;;;14.30;99.90;;;;;;6279924;22;20160;-89
2022/05/21 05:10:46;;;;;;;13.20;3.60;;;14.40;99.90;;;;;;6280448;22;20146;-90
2022/05/21 05:13:13;;;;;;;16.77;3.77;;;14.30;99.90;;;;;;6282348;22;20150;-89
2022/05/21 05:15:39;;;;;;;9.47;2.80;;;14.30;99.90;;;;;;6281826;22;20190;-89
2022/05/21 05:18:08;;;;;;;6.97;3.00;;;14.30;99.90;;;;;;6281935;22;20157;-89
2022/05/21 05:20:34;;;;;;;10.83;3.17;;;14.30;99.90;;;;;;6282507;22;20150;-89
2022/05/21 05:23:00;;;;;;;9.30;3.17;;;14.30;99.90;;;;;;6282558;22;20182;-89
2022/05/21 05:25:26;;;;;;;8.70;3.07;;;14.30;99.90;;;;;;6283066;22;20201;-89
2022/05/21 05:27:52;;;;;;;12.27;3.77;;;14.30;99.90;;;;;;6282085;22;20148;-89
2022/05/21 05:30:19;;;;;;;7.10;2.43;;;14.40;99.90;;;;;;6282019;22;20139;-89
2022/05/21 05:32:45;;;;;;;11.23;3.30;;;14.40;99.90;;;;;;6282195;22;20170;-89
2022/05/21 05:35:12;;;;;;;8.10;3.67;;;14.40;99.90;;;;;;6282459;22;20174;-90
2022/05/21 05:37:38;;;;;;;9.83;3.33;;;14.40;99.90;;;;;;6281957;22;20579;-89
2022/05/21 05:40:07;;;;;;;10.70;3.83;;;14.40;99.90;;;;;;6282875;22;20147;-90
2022/05/21 05:42:37;;;;;;;12.70;3.00;;;14.40;99.90;;;;;;6282578;22;20212;-89
2022/05/21 05:45:06;;;;;;;11.20;3.50;;;14.40;99.90;;;;;;6282767;22;20148;-89
2022/05/21 05:47:33;;;;;;;12.17;3.67;;;14.60;99.90;;;;;;6283735;22;20152;-89
2022/05/21 05:49:59;;;;;;;10.63;3.07;;;14.60;99.90;;;;;;6283516;22;20155;-90
2022/05/21 05:52:25;;;;;;;12.60;4.30;;;14.70;99.90;;;;;;6284650;22;20211;-90
2022/05/21 05:54:51;;;;;;;13.70;3.77;;;14.80;99.90;;;;;;6284634;22;20140;-90
2022/05/21 05:57:16;;;;;;;13.27;3.10;;;14.90;99.90;;;;;;6285869;22;20149;-89
2022/05/21 05:59:51;;;;;;;9.57;3.60;;;15.00;99.90;;;;;;6284669;22;20144;-90
2022/05/21 06:05:11;;;;;;;11.00;3.73;;;15.00;99.90;;;;;;6314362;22;20756;-90
2022/05/21 06:07:42;;;;;;;10.40;3.43;;;15.20;99.90;;;;;;6287457;22;20144;-90
2022/05/21 06:10:08;;;;;;;15.17;3.83;;;15.30;99.90;;;;;;6282564;22;20145;-89
2022/05/21 06:12:33;;;;;;;16.43;3.53;;;15.50;99.90;;;;;;6281479;22;20147;-89
2022/05/21 06:14:59;;;;;;;9.77;3.10;;;15.70;99.90;;;;;;6281730;22;20174;-89
2022/05/21 06:17:25;;;;;;;18.53;4.07;;;15.90;99.90;;;;;;6281355;22;20598;-89
2022/05/21 06:19:52;;;;;;;14.63;3.53;;;15.90;99.90;;;;;;6281415;22;20298;-89
2022/05/21 06:22:18;;;;;;;18.47;4.43;;;15.90;99.90;;;;;;6282067;22;20188;-90
2022/05/21 06:24:43;;;;;;;20.13;3.40;;;15.80;99.90;;;;;;6281670;22;20222;-90
2022/05/21 06:27:09;;;;;;;12.53;3.23;;;15.70;99.90;;;;;;6281429;22;20158;-89
2022/05/21 06:29:38;;;;;;;12.47;3.77;;;15.70;99.90;;;;;;6281247;22;20294;-90
2022/05/21 06:32:05;;;;;;;16.77;4.83;;;15.80;99.90;;;;;;6281437;22;20147;-90
2022/05/21 06:34:31;;;;;;;13.23;4.03;;;15.80;99.90;;;;;;6281491;22;20193;-90
2022/05/21 06:37:06;;;;;;;16.80;4.33;;;15.80;99.90;;;;;;6281878;22;20185;-90
2022/05/21 06:39:33;;;;;;;15.63;3.80;;;15.90;99.90;;;;;;6281099;22;20182;-90
2022/05/21 06:41:59;;;;;;;11.73;4.17;;;16.10;99.90;;;;;;6280931;22;20190;-89
2022/05/21 06:44:26;;;;;;;8.73;4.50;;;16.10;99.90;;;;;;6280890;22;20148;-89
2022/05/21 06:46:52;;;;;;;15.60;4.90;;;16.00;99.90;;;;;;6281419;22;20563;-89
2022/05/21 06:49:18;;;;;;;14.50;5.07;;;15.90;99.90;;;;;;6281327;22;20149;-89
2022/05/21 06:51:44;;;;;;;14.37;5.07;;;16.00;99.90;;;;;;6281628;22;20631;-89
2022/05/21 06:54:10;;;;;;;12.87;5.07;;;16.10;99.90;;;;;;6281443;22;20183;-89
2022/05/21 06:56:39;;;;;;;15.43;5.33;;;16.20;99.90;;;;;;6280981;22;20147;-89
2022/05/21 06:59:05;;;;;;;14.77;5.63;;;16.40;99.90;;;;;;6281000;22;20573;-89
2022/05/21 07:01:31;;;;;;;13.60;5.93;;;16.20;99.90;;;;;;6281571;22;20184;-89
2022/05/21 07:03:57;;;;;;;13.57;5.43;;;16.30;99.90;;;;;;6281236;22;20575;-89
2022/05/21 07:09:07;;;;;;;12.23;5.20;;;16.50;99.90;;;;;;6308311;22;20145;-89
2022/05/21 07:11:33;;;;;;;15.93;6.07;;;16.70;99.90;;;;;;6281064;22;20477;-89
2022/05/21 07:13:59;;;;;;;17.67;4.83;;;16.70;99.90;;;;;;6281311;22;20256;-89
2022/05/21 07:16:25;;;;;;;13.53;4.63;;;16.80;99.90;;;;;;6280937;22;20539;-89
2022/05/21 07:18:51;;;;;;;14.83;5.13;;;16.80;99.90;;;;;;6281527;22;20183;-89
2022/05/21 07:21:18;;;;;;;12.17;4.43;;;16.80;99.90;;;;;;6281105;22;20673;-91
2022/05/21 07:23:45;;;;;;;16.50;5.43;;;16.50;99.90;;;;;;6281563;22;20229;-89
2022/05/21 07:26:11;;;;;;;12.70;5.57;;;16.40;99.90;;;;;;6281346;22;20156;-88
2022/05/21 07:28:37;;;;;;;14.57;5.27;;;16.30;99.90;;;;;;6281163;22;20149;-89
2022/05/21 07:31:04;;;;;;;13.30;4.73;;;16.40;99.90;;;;;;6280919;22;20138;-89
2022/05/21 07:33:29;;;;;;;13.17;5.40;;;16.50;99.90;;;;;;6280857;22;20222;-88
2022/05/21 07:35:55;;;;;;;13.10;4.70;;;16.60;99.90;;;;;;6280154;22;20183;-89
2022/05/21 07:38:21;;;;;;;14.63;5.37;;;16.80;99.90;;;;;;6281153;22;20157;-89
2022/05/21 07:40:48;;;;;;;12.83;4.30;;;16.90;99.90;;;;;;6280950;22;20167;-89
2022/05/21 07:43:19;;;;;;;16.10;4.70;;;17.00;99.90;;;;;;6281179;22;20184;-89
2022/05/21 07:45:46;;;;;;;11.87;4.53;;;16.90;99.90;;;;;;6280973;22;20211;-89
2022/05/21 07:48:14;;;;;;;13.53;4.53;;;16.90;99.90;;;;;;6280781;22;20142;-90
2022/05/21 07:50:43;;;;;;;15.37;3.80;;;16.90;99.90;;;;;;6280773;22;20531;-89
2022/05/21 07:53:27;;;;;;;15.77;4.10;;;17.00;99.90;;;;;;6281443;22;20164;-90
2022/05/21 07:55:53;;;;;;;13.47;4.20;;;17.10;99.90;;;;;;6281547;22;20156;-90
2022/05/21 07:58:21;;;;;;;14.87;4.13;;;17.20;99.90;;;;;;6281264;22;20149;-90
2022/05/21 08:00:47;;;;;;;10.43;3.60;;;17.20;99.90;;;;;;6281220;22;20195;-90
2022/05/21 08:03:13;;;;;;;11.50;3.10;;;17.30;99.90;;;;;;6280252;22;20662;-89
2022/05/21 08:05:41;;;;;;;10.43;3.63;;;17.30;99.90;;;;;;6281241;22;20158;-89
2022/05/21 08:08:07;;;;;;;10.33;3.33;;;17.40;99.90;;;;;;6280508;22;20156;-90
2022/05/21 08:10:34;;;;;;;14.60;3.57;;;17.30;99.90;;;;;;6280877;22;20227;-90
2022/05/21 08:13:00;;;;;;;11.17;3.37;;;17.30;99.90;;;;;;6280966;22;20196;-90
2022/05/21 08:15:26;;;;;;;15.87;3.70;;;17.20;99.90;;;;;;6280744;22;20264;-90
2022/05/21 08:17:52;;;;;;;9.83;3.40;;;17.30;99.90;;;;;;6281114;22;20177;-90
2022/05/21 08:20:18;;;;;;;15.37;3.43;;;17.20;99.90;;;;;;6280690;22;20704;-90
2022/05/21 08:28:13;;;;;;;7.63;2.87;;;17.10;99.90;;;;;;6307999;22;20149;-89
2022/05/21 08:30:40;;;;;;;10.83;2.63;;;16.90;99.90;;;;;;6280566;22;20205;-89
2022/05/21 08:33:07;;;;;;;13.77;3.50;;;17.00;99.90;;;;;;6280580;22;20161;-90
2022/05/21 08:35:34;;;;;;;13.37;3.07;;;17.30;99.90;;;;;;6280648;22;20186;-90
2022/05/21 08:38:00;;;;;;;12.43;3.17;;;17.30;99.90;;;;;;6280460;22;20190;-90
2022/05/21 08:40:50;;;;;;;12.83;2.70;;;17.30;99.90;;;;;;6280628;22;20152;-89
2022/05/21 08:43:23;;;;;;;9.27;3.00;;;17.40;99.90;;;;;;6280422;22;20187;-90
2022/05/21 08:45:58;;;;;;;9.60;2.30;;;17.50;99.90;;;;;;6282509;22;20141;-89
2022/05/21 14:40:05;;;;;;;5.83;1.87;;;29.20;61.20;;;;;;6322810;22;20219;-89
2022/05/21 14:42:31;;;;;;;5.03;1.43;;;28.70;63.00;;;;;;6312893;22;20238;-89
2022/05/21 14:44:57;;;;;;;6.77;1.50;;;29.50;62.00;;;;;;6312809;22;20149;-92
2022/05/21 14:52:58;;;;;;;6.37;1.47;;;30.40;60.70;;;;;;6340651;22;20598;-90
2022/05/21 14:55:24;;;;;;;7.63;1.67;;;30.60;60.30;;;;;;6312865;22;20182;-91
2022/05/21 14:57:50;;;;;;;5.83;1.57;;;30.10;60.50;;;;;;6312764;22;20185;-90
2022/05/21 15:00:18;;;;;;;5.43;1.37;;;30.20;61.90;;;;;;6312183;22;20149;-90
2022/05/21 15:02:44;;;;;;;7.07;1.83;;;30.40;60.70;;;;;;6312526;22;20185;-91
2022/05/21 15:05:10;;;;;;;6.77;1.73;;;30.50;59.60;;;;;;6312848;22;20656;-91
2022/05/21 15:07:46;;;;;;;3.97;1.47;;;30.00;59.20;;;;;;6313614;22;20553;-90
2022/05/21 15:10:13;;;;;;;5.87;1.90;;;30.00;60.90;;;;;;6311948;22;20178;-88
2022/05/21 15:12:39;;;;;;;7.30;1.73;;;29.80;60.70;;;;;;6313092;22;20282;-91
2022/05/21 15:15:05;;;;;;;6.53;1.53;;;30.10;60.20;;;;;;6290376;22;20166;-90
2022/05/21 15:17:31;;;;;;;4.90;1.63;;;30.00;59.80;;;;;;6281209;22;20149;-91
2022/05/21 15:19:56;;;;;;;6.87;1.70;;;29.60;60.00;;;;;;6281613;22;20150;-90
2022/05/21 15:22:27;;;;;;;5.23;1.77;;;29.60;59.80;;;;;;6281673;22;20691;-91
2022/05/21 15:24:52;;;;;;;7.97;1.57;;;29.60;60.00;;;;;;6281402;22;20165;-91
2022/05/21 15:27:19;;;;;;;3.77;1.30;;;29.70;59.40;;;;;;6282581;22;20180;-91
2022/05/21 15:29:45;;;;;;;7.00;1.40;;;29.80;60.40;;;;;;6282327;22;20142;-90
2022/05/21 15:32:12;;;;;;;9.33;1.80;;;29.80;59.90;;;;;;6283283;22;20152;-90
2022/05/21 15:34:38;;;;;;;7.73;1.40;;;29.20;59.60;;;;;;6283225;22;20685;-90
2022/05/21 15:37:04;;;;;;;4.33;1.40;;;28.60;60.00;;;;;;6285607;22;20161;-91
2022/05/21 15:39:30;;;;;;;4.93;1.30;;;28.30;61.20;;;;;;6284914;22;20165;-91
2022/05/21 15:41:57;;;;;;;4.07;1.20;;;28.00;61.50;;;;;;6284443;22;20200;-92
2022/05/21 15:44:22;;;;;;;5.93;1.63;;;28.00;62.10;;;;;;6290139;22;20237;-90
2022/05/21 15:46:48;;;;;;;4.27;1.20;;;27.80;62.10;;;;;;6288479;22;20198;-90
2022/05/21 15:49:14;;;;;;;9.37;1.83;;;27.40;62.80;;;;;;6291846;22;20150;-91
2022/05/21 15:51:41;;;;;;;8.07;1.83;;;26.80;63.40;;;;;;6292232;22;20158;-90
2022/05/21 15:54:11;;;;;;;5.07;1.70;;;26.30;64.30;;;;;;6291738;22;20153;-89
2022/05/21 15:56:37;;;;;;;6.03;1.83;;;26.20;64.60;;;;;;6289280;22;20161;-90
2022/05/21 15:59:03;;;;;;;6.50;1.50;;;26.40;65.30;;;;;;6292076;22;20483;-91
2022/05/21 16:01:35;;;;;;;4.03;1.70;;;26.90;63.50;;;;;;6291551;22;20154;-90
2022/05/21 16:04:01;;;;;;;3.77;1.07;;;27.10;63.10;;;;;;6289885;22;20157;-90
2022/05/21 16:06:27;;;;;;;4.37;1.50;;;27.50;63.10;;;;;;6289385;22;20156;-90
2022/05/21 16:08:52;;;;;;;6.77;1.70;;;28.10;62.50;;;;;;6282524;22;20154;-90
2022/05/21 16:11:25;;;;;;;5.83;1.30;;;28.60;62.00;;;;;;6280901;22;20249;-90
2022/05/21 16:13:53;;;;;;;5.53;1.70;;;28.90;62.80;;;;;;6280738;22;20500;-90
2022/05/21 16:16:20;;;;;;;4.33;1.83;;;29.00;61.40;;;;;;6280727;22;20204;-90
2022/05/21 16:18:46;;;;;;;6.93;1.53;;;29.00;61.90;;;;;;6281277;22;20232;-89
2022/05/21 16:21:17;;;;;;;5.23;1.90;;;28.80;62.10;;;;;;6280995;22;20157;-89
2022/05/21 16:23:44;;;;;;;6.73;2.00;;;28.00;62.00;;;;;;6281386;22;20248;-90
2022/05/21 16:26:11;;;;;;;3.70;1.50;;;27.90;62.80;;;;;;6280557;22;20150;-91
2022/05/21 16:28:37;;;;;;;6.27;1.77;;;28.00;62.70;;;;;;6280705;22;20484;-89
2022/05/21 16:31:04;;;;;;;5.90;1.73;;;27.00;63.80;;;;;;6280847;22;20161;-90
2022/05/21 16:33:30;;;;;;;6.73;1.77;;;26.70;64.90;;;;;;6280253;22;20152;-90
2022/05/21 16:35:56;;;;;;;7.47;1.80;;;26.60;65.30;;;;;;6280830;22;20156;-90
2022/05/21 16:38:22;;;;;;;8.60;1.70;;;26.30;65.30;;;;;;6280881;22;20146;-90
2022/05/21 16:40:48;;;;;;;7.30;1.67;;;26.40;65.20;;;;;;6280810;22;20224;-93
2022/05/21 16:43:16;;;;;;;6.70;1.93;;;26.50;65.40;;;;;;6280437;22;20273;-89
2022/05/21 16:45:46;;;;;;;6.27;2.27;;;26.50;65.10;;;;;;6280565;22;20151;-92
2022/05/21 16:48:17;;;;;;;6.83;1.97;;;26.40;65.20;;;;;;6280534;22;20151;-91
2022/05/21 16:50:43;;;;;;;8.30;2.40;;;26.00;66.20;;;;;;6280535;22;20149;-89
2022/05/21 16:53:11;;;;;;;6.27;1.60;;;26.00;66.80;;;;;;6281100;22;20160;-90
2022/05/21 16:55:37;;;;;;;6.70;1.57;;;26.40;66.20;;;;;;6280585;22;20163;-89
2022/05/21 16:58:03;;;;;;;8.07;1.57;;;27.00;65.30;;;;;;6280561;22;20185;-90
2022/05/21 17:00:33;;;;;;;4.53;1.17;;;27.00;64.00;;;;;;6281180;22;20160;-90
2022/05/21 17:03:00;;;;;;;5.30;1.87;;;27.10;64.30;;;;;;6280456;22;20181;-89
2022/05/21 17:05:27;;;;;;;4.67;1.17;;;27.30;63.90;;;;;;6280555;22;20148;-89
2022/05/21 17:07:54;;;;;;;4.33;1.50;;;27.40;64.00;;;;;;6281178;22;20156;-89
2022/05/21 17:10:20;;;;;;;6.63;1.90;;;26.60;65.00;;;;;;6282515;22;20195;-89
2022/05/21 17:12:46;;;;;;;7.23;1.83;;;26.30;66.30;;;;;;6282732;22;20580;-89
2022/05/21 17:15:12;;;;;;;7.97;1.57;;;26.20;66.90;;;;;;6282878;22;20172;-89
2022/05/21 17:17:38;;;;;;;8.40;2.80;;;26.30;67.50;;;;;;6282960;22;20156;-90
2022/05/21 17:20:07;;;;;;;5.50;1.77;;;26.40;66.40;;;;;;6282665;22;20156;-89
2022/05/21 17:22:33;;;;;;;7.57;2.57;;;26.50;66.30;;;;;;6282404;22;20221;-88
2022/05/21 17:24:59;;;;;;;7.80;2.00;;;26.30;66.30;;;;;;6282653;22;20142;-91
2022/05/21 17:32:57;;;;;;;7.33;1.97;;;27.00;64.90;;;;;;6309853;22;20172;-90
2022/05/21 17:35:26;;;;;;;5.73;1.90;;;27.30;64.90;;;;;;6282198;22;20155;-91
2022/05/21 17:37:52;;;;;;;6.00;2.07;;;26.90;64.50;;;;;;6282272;22;20236;-91
2022/05/21 17:40:18;;;;;;;6.30;1.80;;;26.80;64.80;;;;;;6282358;22;20196;-90
2022/05/21 17:42:45;;;;;;;6.27;1.70;;;26.60;65.20;;;;;;6282139;22;20232;-91
2022/05/21 17:45:13;;;;;;;4.63;1.93;;;26.60;65.30;;;;;;6282355;22;20160;-91
2022/05/21 17:47:39;;;;;;;9.37;2.07;;;26.50;65.00;;;;;;6282419;22;20159;-91
2022/05/21 17:50:23;;;;;;;4.97;1.60;;;26.20;65.90;;;;;;6282080;22;20224;-88
2022/05/21 17:52:49;;;;;;;4.83;1.60;;;25.70;67.00;;;;;;6282531;22;20263;-88
2022/05/21 17:55:15;;;;;;;6.73;1.73;;;25.20;67.80;;;;;;6282307;22;20158;-90
2022/05/21 17:57:41;;;;;;;5.90;2.00;;;24.70;68.70;;;;;;6282334;22;20237;-90
2022/05/21 18:00:10;;;;;;;6.30;1.77;;;24.20;69.20;;;;;;6282196;22;20467;-91
2022/05/21 18:02:37;;;;;;;5.90;1.70;;;23.90;70.30;;;;;;6282125;22;20748;-91
2022/05/21 18:05:05;;;;;;;7.33;1.77;;;23.90;70.30;;;;;;6282207;22;20146;-91
2022/05/21 18:07:30;;;;;;;8.90;1.77;;;24.00;70.70;;;;;;6282533;22;20229;-89
2022/05/21 18:09:56;;;;;;;7.50;1.90;;;24.10;71.20;;;;;;6282123;22;20201;-89
2022/05/21 18:12:21;;;;;;;7.53;2.30;;;24.50;70.10;;;;;;6282094;22;20604;-90
2022/05/21 18:14:47;;;;;;;6.80;2.00;;;24.90;69.10;;;;;;6282158;22;20504;-91
2022/05/21 18:20:01;;;;;;;6.63;1.80;;;25.40;67.90;;;;;;6308894;22;20175;-89
2022/05/21 18:22:26;;;;;;;6.27;1.97;;;25.40;67.70;;;;;;6282223;22;20186;-89
2022/05/21 18:24:52;;;;;;;7.53;2.53;;;25.20;68.20;;;;;;6281840;22;20150;-90
2022/05/21 18:27:18;;;;;;;9.30;2.60;;;25.00;68.30;;;;;;6282181;22;20154;-91
2022/05/21 18:29:43;;;;;;;7.07;1.60;;;24.90;68.90;;;;;;6282305;22;20174;-89
2022/05/21 18:32:14;;;;;;;5.10;2.00;;;25.00;69.10;;;;;;6281678;22;20213;-89
2022/05/21 18:34:39;;;;;;;10.80;2.20;;;24.90;68.90;;;;;;6281778;22;20579;-89
2022/05/21 18:37:05;;;;;;;5.70;1.73;;;24.60;69.10;;;;;;6282296;22;20160;-88
2022/05/21 18:39:31;;;;;;;6.53;1.50;;;24.40;69.20;;;;;;6281936;22;20165;-90
2022/05/21 18:41:56;;;;;;;3.83;1.17;;;24.20;69.10;;;;;;6281950;22;20243;-89
2022/05/21 18:44:22;;;;;;;4.17;1.37;;;23.90;69.10;;;;;;6281592;22;20197;-88
2022/05/21 18:46:47;;;;;;;7.20;1.30;;;23.90;69.50;;;;;;6281813;22;20195;-90
2022/05/21 18:49:13;;;;;;;4.70;1.43;;;23.90;68.90;;;;;;6281690;22;20180;-90
2022/05/21 18:51:41;;;;;;;4.77;1.20;;;23.60;69.30;;;;;;6281878;22;20161;-89
2022/05/21 18:54:08;;;;;;;6.53;2.00;;;23.50;70.30;;;;;;6282174;22;20150;-90
2022/05/21 18:56:35;;;;;;;7.80;2.50;;;23.50;72.60;;;;;;6281763;22;20590;-89
2022/05/21 18:59:04;;;;;;;8.63;3.03;;;23.50;74.30;;;;;;6281789;22;20225;-91
2022/05/21 19:01:31;;;;;;;10.13;3.77;;;23.60;76.30;;;;;;6281251;22;20236;-91
2022/05/21 19:03:58;;;;;;;9.57;3.63;;;23.70;77.30;;;;;;6281826;22;20634;-91
2022/05/21 19:06:25;;;;;;;12.47;3.67;;;23.70;77.60;;;;;;6281384;22;20154;-91